createdAt,value
2023-04-14T09:50:34.707Z,2.40
2023-04-14T09:52:05.957Z,2.72
2023-04-14T09:53:37.680Z,3.11
2023-04-14T09:55:09.238Z,2.92
2023-04-14T09:56:40.699Z,2.94
2023-04-14T09:58:11.891Z,2.66
2023-04-14T09:59:43.177Z,2.91
2023-04-14T10:01:14.630Z,2.65
2023-04-14T10:02:46.019Z,2.40
2023-04-14T10:04:17.386Z,2.72
2023-04-14T10:05:48.918Z,2.69
2023-04-14T10:07:20.376Z,2.60
2023-04-14T10:10:56.714Z,2.68
2023-04-14T10:12:44.367Z,2.84
2023-04-14T10:14:15.703Z,2.80
2023-04-14T10:15:47.171Z,2.61
2023-04-14T10:17:18.684Z,2.63
2023-04-14T10:18:50.001Z,2.64
2023-04-14T10:20:21.294Z,2.55
2023-04-14T10:21:52.774Z,2.24
2023-04-14T10:23:24.046Z,2.40
2023-04-14T10:24:55.319Z,2.98
2023-04-14T10:26:26.643Z,2.46
2023-04-14T10:27:58.026Z,2.58
2023-04-14T10:29:29.400Z,2.60
2023-04-14T10:31:02.124Z,2.56
2023-04-14T10:32:33.565Z,2.52
2023-04-14T10:34:04.851Z,2.51
2023-04-14T10:35:36.178Z,2.56
2023-04-14T10:37:07.743Z,2.34
2023-04-14T10:38:39.225Z,2.53
2023-04-14T10:40:10.536Z,2.53
2023-04-14T10:41:41.884Z,2.44
2023-04-14T10:43:13.268Z,2.52
2023-04-14T10:44:44.642Z,2.61
2023-04-14T10:46:18.494Z,2.64
2023-04-14T10:47:50.145Z,2.58
2023-04-14T10:49:22.631Z,2.61
2023-04-14T10:50:54.452Z,2.73
2023-04-14T10:52:25.864Z,2.93
2023-04-14T10:53:57.157Z,2.76
2023-04-14T10:55:28.498Z,2.25
2023-04-14T10:56:59.908Z,2.49
2023-04-14T10:58:31.277Z,2.81
2023-04-14T11:00:02.638Z,2.57
2023-04-14T11:01:34.048Z,2.62
2023-04-14T11:03:10.992Z,2.62
2023-04-14T11:04:42.679Z,2.41
2023-04-14T11:06:13.976Z,2.49
2023-04-14T11:07:45.436Z,2.47
2023-04-14T11:09:16.784Z,2.47
2023-04-14T11:10:48.197Z,2.39
2023-04-14T11:12:19.656Z,2.67
2023-04-14T11:13:50.987Z,2.24
2023-04-14T11:15:22.444Z,2.39
2023-04-14T11:17:02.605Z,2.51
2023-04-14T11:18:35.634Z,2.31
2023-04-14T11:20:07.338Z,2.11
2023-04-14T11:21:38.712Z,2.44
2023-04-14T11:23:10.941Z,2.11
2023-04-14T11:24:42.579Z,2.22
2023-04-14T11:26:18.963Z,2.19
2023-04-14T11:27:50.475Z,2.36
2023-04-14T11:29:21.962Z,2.28
2023-04-14T11:30:53.331Z,2.35
2023-04-14T11:32:25.546Z,2.16
2023-04-14T11:33:57.059Z,2.31
2023-04-14T11:35:28.501Z,2.66
2023-04-14T11:37:00.148Z,2.41
2023-04-14T11:38:31.530Z,2.42
2023-04-14T11:40:03.206Z,2.32
2023-04-14T11:41:34.651Z,2.52
2023-04-14T11:43:05.968Z,1.93
2023-04-14T11:44:37.529Z,2.27
2023-04-14T11:46:09.153Z,2.36
2023-04-14T11:47:45.727Z,2.41
2023-04-14T11:49:17.451Z,2.38
2023-04-14T11:50:49.053Z,2.52
2023-04-14T11:52:20.476Z,2.22
2023-04-14T11:53:51.913Z,2.38
2023-04-14T11:55:23.504Z,2.46
2023-04-14T11:56:54.966Z,2.28
2023-04-14T11:58:26.457Z,2.50
2023-04-14T11:59:58.087Z,2.32
2023-04-14T12:01:29.830Z,2.27
2023-04-14T12:03:01.515Z,2.13
2023-04-14T12:04:33.353Z,2.17
2023-04-14T12:06:04.941Z,2.33
2023-04-14T12:07:36.427Z,2.52
2023-04-14T12:09:08.518Z,2.55
2023-04-14T12:10:40.111Z,2.49
2023-04-14T12:12:11.617Z,2.53
2023-04-14T12:13:43.130Z,2.52
2023-04-14T12:15:14.786Z,2.27
2023-04-14T12:16:46.460Z,2.18
2023-04-14T12:19:49.605Z,2.27
2023-04-14T12:21:21.035Z,2.18
2023-04-14T12:22:52.538Z,2.12
2023-04-14T12:24:24.258Z,2.40
2023-04-14T12:25:55.702Z,2.68
2023-04-14T12:27:27.129Z,2.40
2023-04-14T12:28:58.581Z,2.44
2023-04-14T12:30:30.186Z,2.25
2023-04-14T12:32:01.697Z,2.26
2023-04-14T12:33:33.227Z,2.31
2023-04-14T12:35:04.734Z,2.50
2023-04-14T12:36:48.032Z,2.44
2023-04-14T12:38:20.892Z,2.42
2023-04-14T12:39:52.638Z,2.30
2023-04-14T12:41:24.497Z,1.99
2023-04-14T12:42:56.006Z,2.10
2023-04-14T12:44:27.561Z,2.43
2023-04-14T12:45:59.198Z,2.38
2023-04-14T12:47:30.709Z,2.62
2023-04-14T12:49:02.418Z,2.67
2023-04-14T12:50:34.096Z,2.47
2023-04-14T12:52:05.595Z,2.45
2023-04-14T12:53:37.482Z,2.57
2023-04-14T12:55:08.953Z,2.53
2023-04-14T12:56:40.435Z,2.55
2023-04-14T12:58:11.847Z,2.32
2023-04-14T12:59:43.371Z,2.29
2023-04-14T13:01:14.916Z,2.37
2023-04-14T13:02:47.109Z,2.28
2023-04-14T13:04:19.176Z,2.12
2023-04-14T13:05:50.786Z,2.16
2023-04-14T13:07:22.349Z,1.94
2023-04-14T13:08:53.881Z,2.14
2023-04-14T13:10:25.460Z,2.37
2023-04-14T13:11:56.983Z,2.05
2023-04-14T13:13:28.485Z,2.24
2023-04-14T13:15:00.048Z,1.96
2023-04-14T13:16:31.729Z,1.85
2023-04-14T13:18:04.255Z,2.18
2023-04-14T13:19:35.828Z,2.27
2023-04-14T13:21:07.293Z,2.31
2023-04-14T13:22:38.795Z,2.13
2023-04-14T13:24:10.221Z,2.06
2023-04-14T13:25:41.728Z,2.38
2023-04-14T13:27:13.232Z,2.35
2023-04-14T13:28:44.744Z,2.16
2023-04-14T13:30:16.197Z,2.28
2023-04-14T13:31:47.688Z,2.02
2023-04-14T13:33:19.298Z,2.04
2023-04-14T13:34:51.431Z,2.29
2023-04-14T13:36:23.950Z,2.04
2023-04-14T13:37:55.449Z,2.61
2023-04-14T13:39:26.935Z,2.37
2023-04-14T13:40:58.498Z,2.33
2023-04-14T13:42:35.238Z,2.41
2023-04-14T13:44:06.676Z,2.68
2023-04-14T13:45:43.990Z,2.41
2023-04-14T13:47:15.471Z,2.50
2023-04-14T13:48:47.065Z,2.63
2023-04-14T13:50:18.846Z,2.66
2023-04-14T13:51:50.366Z,2.54
2023-04-14T13:53:21.895Z,2.44
2023-04-14T13:54:53.316Z,2.82
2023-04-14T13:56:24.743Z,2.77
2023-04-14T13:57:56.275Z,2.81
2023-04-14T13:59:27.837Z,2.69
2023-04-14T14:00:59.319Z,2.63
2023-04-14T14:02:30.939Z,2.66
2023-04-14T14:04:02.722Z,2.41
2023-04-14T14:05:34.607Z,2.49
2023-04-14T14:07:05.960Z,2.45
2023-04-14T14:08:37.446Z,2.50
2023-04-14T14:10:08.931Z,2.19
2023-04-14T14:11:40.541Z,2.43
2023-04-14T14:13:12.132Z,2.30
2023-04-14T14:14:43.955Z,2.47
2023-04-14T14:16:22.971Z,2.41
2023-04-14T14:18:05.257Z,2.35
2023-04-14T14:19:36.740Z,2.59
2023-04-14T14:21:08.198Z,2.68
2023-04-14T14:22:39.765Z,2.64
2023-04-14T14:24:11.186Z,2.68
2023-04-14T14:25:42.696Z,2.68
2023-04-14T14:27:14.130Z,2.40
2023-04-14T14:28:45.516Z,2.43
2023-04-14T14:30:16.927Z,2.53
2023-04-14T14:31:48.441Z,2.50
2023-04-14T14:33:20.074Z,2.49
2023-04-14T14:34:51.522Z,2.32
2023-04-14T14:36:23.101Z,2.43
2023-04-14T14:37:54.610Z,2.40
2023-04-14T14:39:25.967Z,2.43
2023-04-14T14:40:57.447Z,2.52
2023-04-14T14:42:28.941Z,2.45
2023-04-14T14:44:01.512Z,2.19
2023-04-14T14:45:33.819Z,2.41
2023-04-14T14:47:05.579Z,2.02
2023-04-14T14:48:37.006Z,2.04
2023-04-14T14:50:09.020Z,2.01
2023-04-14T14:51:40.431Z,2.02
2023-04-14T14:53:11.832Z,2.09
2023-04-14T14:54:43.246Z,2.14
2023-04-14T14:56:14.717Z,2.00
2023-04-14T14:57:46.268Z,2.31
2023-04-14T14:59:17.890Z,2.21
2023-04-14T15:00:49.257Z,2.15
2023-04-14T15:02:21.000Z,2.44
2023-04-14T15:03:52.771Z,2.31
2023-04-14T15:05:24.509Z,2.25
2023-04-14T15:06:55.883Z,2.30
2023-04-14T15:08:27.389Z,2.20
2023-04-14T15:09:59.302Z,2.57
2023-04-14T15:11:30.743Z,2.62
2023-04-14T15:13:02.337Z,2.61
2023-04-14T15:14:33.974Z,2.52
2023-04-14T15:16:06.744Z,2.51
2023-04-14T15:17:38.237Z,2.57
2023-04-14T15:19:09.743Z,2.76
2023-04-14T15:20:41.270Z,2.63
2023-04-14T15:22:12.743Z,2.98
2023-04-14T15:23:44.180Z,2.91
2023-04-14T15:25:15.597Z,3.12
2023-04-14T15:26:47.021Z,2.71
2023-04-14T15:28:18.414Z,2.81
2023-04-14T15:29:49.902Z,2.75
2023-04-14T15:31:21.363Z,2.76
2023-04-14T15:32:52.858Z,2.96
2023-04-14T15:34:24.348Z,2.91
2023-04-14T15:35:55.790Z,2.79
2023-04-14T15:37:27.429Z,2.71
2023-04-14T15:38:58.906Z,3.05
2023-04-14T15:40:30.336Z,2.83
2023-04-14T15:42:01.738Z,2.94
2023-04-14T15:43:33.305Z,3.24
2023-04-14T15:45:05.082Z,3.06
2023-04-14T15:46:36.548Z,3.50
2023-04-14T15:48:07.946Z,3.16
2023-04-14T15:49:39.627Z,3.18
2023-04-14T15:51:11.145Z,2.80
2023-04-14T15:52:42.815Z,2.67
2023-04-14T15:54:14.188Z,2.57
2023-04-14T15:55:45.678Z,2.32
2023-04-14T15:57:17.191Z,2.51
2023-04-14T15:58:48.650Z,2.56
2023-04-14T16:00:20.174Z,2.62
2023-04-14T16:01:51.718Z,2.65
2023-04-14T16:03:23.405Z,2.47
2023-04-14T16:04:55.079Z,2.34
2023-04-14T16:06:26.852Z,2.47
2023-04-14T16:07:58.523Z,2.33
2023-04-14T16:09:29.944Z,2.38
2023-04-14T16:11:01.517Z,2.39
2023-04-14T16:12:32.961Z,2.45
2023-04-14T16:14:04.519Z,2.37
2023-04-14T16:15:37.070Z,2.45
2023-04-14T16:17:09.560Z,2.21
2023-04-14T16:18:42.529Z,2.25
2023-04-14T16:20:14.189Z,2.64
2023-04-14T16:21:45.745Z,2.22
2023-04-14T16:23:17.210Z,2.09
2023-04-14T16:24:48.774Z,2.21
2023-04-14T16:26:20.221Z,1.90
2023-04-14T16:27:51.778Z,1.96
2023-04-14T16:29:23.330Z,1.91
2023-04-14T16:30:55.053Z,2.24
2023-04-14T16:32:31.633Z,1.85
2023-04-14T16:34:03.512Z,2.13
2023-04-14T16:35:35.334Z,2.06
2023-04-14T16:37:06.746Z,2.08
2023-04-14T16:38:38.328Z,1.95
2023-04-14T16:40:09.760Z,2.03
2023-04-14T16:41:41.383Z,1.96
2023-04-14T16:43:13.060Z,2.10
2023-04-14T16:44:44.548Z,2.16
2023-04-14T16:46:16.027Z,2.67
2023-04-14T16:47:47.690Z,3.19
2023-04-14T16:49:19.195Z,3.36
2023-04-14T16:50:50.630Z,3.29
2023-04-14T16:52:22.088Z,3.34
2023-04-14T16:53:53.498Z,3.03
2023-04-14T16:55:25.022Z,3.19
2023-04-14T16:56:56.507Z,2.61
2023-04-14T16:58:27.994Z,3.00
2023-04-14T16:59:59.651Z,3.15
2023-04-14T17:01:31.291Z,2.67
2023-04-14T17:03:03.133Z,2.96
2023-04-14T17:04:34.934Z,3.03
2023-04-14T17:06:06.549Z,2.80
2023-04-14T17:07:38.056Z,2.69
2023-04-14T17:09:09.614Z,2.78
2023-04-14T17:10:41.159Z,2.90
2023-04-14T17:12:12.497Z,2.78
2023-04-14T17:13:43.890Z,2.61
2023-04-14T17:15:15.233Z,2.49
2023-04-14T17:16:46.665Z,2.38
2023-04-14T17:18:18.193Z,2.55
2023-04-14T17:19:49.752Z,2.03
2023-04-14T17:21:21.119Z,2.08
2023-04-14T17:22:53.456Z,1.91
2023-04-14T17:24:24.889Z,1.69
2023-04-14T17:25:56.251Z,1.83
2023-04-14T17:27:27.668Z,1.72
2023-04-14T17:28:59.235Z,1.78
2023-04-14T17:30:31.473Z,1.79
2023-04-14T17:32:02.948Z,1.71
2023-04-14T17:33:34.398Z,2.01
2023-04-14T17:35:05.695Z,1.77
2023-04-14T17:36:37.067Z,2.13
2023-04-14T17:38:08.481Z,1.95
2023-04-14T17:39:39.796Z,1.90
2023-04-14T17:41:12.772Z,1.79
2023-04-14T17:42:44.617Z,2.07
2023-04-14T17:44:15.999Z,1.81
2023-04-14T17:45:47.369Z,1.72
2023-04-14T17:47:18.780Z,1.87
2023-04-14T17:48:50.309Z,1.69
2023-04-14T17:50:21.782Z,1.64
2023-04-14T17:51:53.619Z,1.87
2023-04-14T17:53:24.954Z,1.99
2023-04-14T17:54:56.378Z,2.00
2023-04-14T17:56:27.817Z,2.20
2023-04-14T17:57:59.311Z,2.12
2023-04-14T17:59:30.596Z,2.40
2023-04-14T18:01:01.989Z,2.28
2023-04-14T18:02:33.319Z,2.24
2023-04-14T18:04:04.928Z,1.87
2023-04-14T18:05:36.412Z,2.08
2023-04-14T18:07:08.107Z,2.44
2023-04-14T18:08:39.538Z,2.49
2023-04-14T18:10:10.814Z,2.45
2023-04-14T18:11:42.148Z,2.14
2023-04-14T18:13:13.436Z,2.23
2023-04-14T18:14:44.858Z,2.34
2023-04-14T18:16:16.299Z,2.28
2023-04-14T18:17:48.033Z,2.51
2023-04-14T18:19:19.695Z,2.42
2023-04-14T18:20:51.071Z,2.89
2023-04-14T18:22:23.462Z,2.21
2023-04-14T18:26:26.383Z,2.48
2023-04-14T18:29:33.347Z,2.56
2023-04-14T18:31:04.848Z,2.37
2023-04-14T18:32:36.246Z,2.81
2023-04-14T18:34:07.741Z,2.78
2023-04-14T18:35:39.226Z,2.74
2023-04-14T18:37:10.497Z,3.20
2023-04-14T18:38:41.805Z,3.06
2023-04-14T18:40:13.112Z,2.78
2023-04-14T18:41:44.726Z,2.89
2023-04-14T18:43:16.327Z,3.14
2023-04-14T18:44:52.683Z,2.94
2023-04-14T18:46:24.155Z,3.00
2023-04-14T18:47:55.602Z,3.17
2023-04-14T18:49:27.181Z,2.90
2023-04-14T18:50:58.703Z,2.90
2023-04-14T18:52:30.088Z,2.93
2023-04-14T18:54:06.463Z,2.92
2023-04-14T18:55:44.637Z,2.96
2023-04-14T18:57:16.717Z,3.06
2023-04-14T18:58:48.184Z,3.44
2023-04-14T19:00:19.562Z,3.49
2023-04-14T19:01:50.927Z,3.41
2023-04-14T19:03:22.438Z,3.19
2023-04-14T19:04:54.072Z,3.36
2023-04-14T19:06:25.396Z,3.59
2023-04-14T19:07:56.829Z,3.82
2023-04-14T19:09:28.211Z,3.63
2023-04-14T19:10:59.680Z,3.50
2023-04-14T19:12:31.500Z,3.85
2023-04-14T19:14:02.913Z,3.32
2023-04-14T19:15:34.316Z,3.37
2023-04-14T19:17:05.637Z,3.40
2023-04-14T19:18:37.034Z,3.47
2023-04-14T19:20:08.677Z,3.51
2023-04-14T19:21:40.024Z,3.43
2023-04-14T19:23:11.474Z,3.51
2023-04-14T19:24:42.773Z,3.33
2023-04-14T19:26:14.043Z,3.73
2023-04-14T19:27:45.511Z,3.10
2023-04-14T19:29:16.942Z,3.24
2023-04-14T19:30:48.311Z,3.57
2023-04-14T19:32:19.865Z,3.46
2023-04-14T19:33:51.318Z,3.28
2023-04-14T19:35:22.706Z,3.55
2023-04-14T19:36:54.084Z,3.66
2023-04-14T19:38:25.652Z,3.49
2023-04-14T19:39:56.933Z,3.81
2023-04-14T19:41:28.272Z,3.56
2023-04-14T19:42:59.710Z,3.38
2023-04-14T19:44:30.960Z,3.68
2023-04-14T19:46:02.345Z,3.62
